sensor_id;sensor_type;location;lat;lon;timestamp;P1;durP1;ratioP1;P2;durP2;ratioP2
20241;SDS011;10279;46.388;8.116;2022-09-27T00:01:21;1.53;;;1.30;;
20241;SDS011;10279;46.388;8.116;2022-09-27T00:03:51;1.23;;;1.10;;
20241;SDS011;10279;46.388;8.116;2022-09-27T00:06:25;1.13;;;1.03;;
20241;SDS011;10279;46.388;8.116;2022-09-27T00:22:08;1.97;;;1.50;;
20241;SDS011;10279;46.388;8.116;2022-09-27T00:24:35;1.20;;;1.10;;
20241;SDS011;10279;46.388;8.116;2022-09-27T00:27:03;1.60;;;1.40;;
20241;SDS011;10279;46.388;8.116;2022-09-27T00:29:30;3.37;;;1.57;;
20241;SDS011;10279;46.388;8.116;2022-09-27T00:32:01;1.00;;;1.00;;
20241;SDS011;10279;46.388;8.116;2022-09-27T00:34:28;2.40;;;1.73;;
20241;SDS011;10279;46.388;8.116;2022-09-27T00:36:55;1.33;;;1.23;;
20241;SDS011;10279;46.388;8.116;2022-09-27T00:39:23;1.33;;;1.23;;
20241;SDS011;10279;46.388;8.116;2022-09-27T00:41:50;1.73;;;1.50;;
20241;SDS011;10279;46.388;8.116;2022-09-27T00:46:58;1.23;;;1.13;;
20241;SDS011;10279;46.388;8.116;2022-09-27T00:49:30;1.80;;;1.40;;
20241;SDS011;10279;46.388;8.116;2022-09-27T00:52:11;1.20;;;1.10;;
20241;SDS011;10279;46.388;8.116;2022-09-27T00:54:41;1.93;;;1.30;;
20241;SDS011;10279;46.388;8.116;2022-09-27T00:57:10;2.17;;;1.57;;
20241;SDS011;10279;46.388;8.116;2022-09-27T00:59:39;1.80;;;1.20;;
20241;SDS011;10279;46.388;8.116;2022-09-27T01:02:07;1.87;;;1.07;;
20241;SDS011;10279;46.388;8.116;2022-09-27T01:04:35;1.73;;;1.10;;
20241;SDS011;10279;46.388;8.116;2022-09-27T01:07:03;1.47;;;1.20;;
20241;SDS011;10279;46.388;8.116;2022-09-27T01:09:30;1.20;;;1.10;;
20241;SDS011;10279;46.388;8.116;2022-09-27T01:28:03;1.00;;;0.90;;
20241;SDS011;10279;46.388;8.116;2022-09-27T01:30:41;1.03;;;0.90;;
20241;SDS011;10279;46.388;8.116;2022-09-27T01:33:13;0.80;;;0.80;;
20241;SDS011;10279;46.388;8.116;2022-09-27T01:38:21;1.23;;;0.87;;
20241;SDS011;10279;46.388;8.116;2022-09-27T01:40:52;1.10;;;0.80;;
20241;SDS011;10279;46.388;8.116;2022-09-27T01:46:09;0.90;;;0.90;;
20241;SDS011;10279;46.388;8.116;2022-09-27T01:48:41;0.83;;;0.80;;
20241;SDS011;10279;46.388;8.116;2022-09-27T01:51:17;1.20;;;0.60;;
20241;SDS011;10279;46.388;8.116;2022-09-27T01:53:46;1.40;;;0.83;;
20241;SDS011;10279;46.388;8.116;2022-09-27T01:56:37;1.00;;;0.90;;
20241;SDS011;10279;46.388;8.116;2022-09-27T01:59:10;0.90;;;0.80;;
20241;SDS011;10279;46.388;8.116;2022-09-27T02:01:39;1.20;;;1.10;;
20241;SDS011;10279;46.388;8.116;2022-09-27T02:14:36;1.37;;;1.27;;
20241;SDS011;10279;46.388;8.116;2022-09-27T02:27:58;1.90;;;0.90;;
20241;SDS011;10279;46.388;8.116;2022-09-27T02:30:31;1.13;;;1.00;;
20241;SDS011;10279;46.388;8.116;2022-09-27T02:32:58;1.10;;;1.00;;
20241;SDS011;10279;46.388;8.116;2022-09-27T02:35:27;1.30;;;1.00;;
20241;SDS011;10279;46.388;8.116;2022-09-27T02:37:55;0.97;;;0.87;;
20241;SDS011;10279;46.388;8.116;2022-09-27T02:40:23;1.10;;;1.00;;
20241;SDS011;10279;46.388;8.116;2022-09-27T02:42:52;1.27;;;1.17;;
20241;SDS011;10279;46.388;8.116;2022-09-27T02:45:19;0.80;;;0.80;;
20241;SDS011;10279;46.388;8.116;2022-09-27T02:53:13;1.00;;;0.87;;
20241;SDS011;10279;46.388;8.116;2022-09-27T02:55:48;1.77;;;1.00;;
20241;SDS011;10279;46.388;8.116;2022-09-27T03:00:53;4.93;;;1.30;;
20241;SDS011;10279;46.388;8.116;2022-09-27T03:03:26;0.87;;;0.87;;
20241;SDS011;10279;46.388;8.116;2022-09-27T03:06:02;1.27;;;1.13;;
20241;SDS011;10279;46.388;8.116;2022-09-27T03:08:30;1.43;;;1.10;;
20241;SDS011;10279;46.388;8.116;2022-09-27T03:10:57;1.10;;;1.00;;
20241;SDS011;10279;46.388;8.116;2022-09-27T03:13:25;1.53;;;1.00;;
20241;SDS011;10279;46.388;8.116;2022-09-27T03:15:53;1.13;;;1.03;;
20241;SDS011;10279;46.388;8.116;2022-09-27T03:18:26;1.47;;;1.37;;
20241;SDS011;10279;46.388;8.116;2022-09-27T03:20:54;1.33;;;1.13;;
20241;SDS011;10279;46.388;8.116;2022-09-27T03:23:21;1.93;;;1.20;;
20241;SDS011;10279;46.388;8.116;2022-09-27T03:25:48;1.27;;;1.10;;
20241;SDS011;10279;46.388;8.116;2022-09-27T03:28:17;1.73;;;1.30;;
20241;SDS011;10279;46.388;8.116;2022-09-27T03:30:44;1.23;;;0.90;;
20241;SDS011;10279;46.388;8.116;2022-09-27T03:33:12;2.00;;;1.10;;
20241;SDS011;10279;46.388;8.116;2022-09-27T03:35:40;1.30;;;1.10;;
20241;SDS011;10279;46.388;8.116;2022-09-27T03:38:08;1.10;;;1.10;;
20241;SDS011;10279;46.388;8.116;2022-09-27T03:40:36;1.20;;;1.10;;
20241;SDS011;10279;46.388;8.116;2022-09-27T03:43:03;2.30;;;1.27;;
20241;SDS011;10279;46.388;8.116;2022-09-27T03:45:31;1.30;;;1.20;;
20241;SDS011;10279;46.388;8.116;2022-09-27T03:47:58;2.33;;;1.17;;
20241;SDS011;10279;46.388;8.116;2022-09-27T03:50:26;1.30;;;1.10;;
20241;SDS011;10279;46.388;8.116;2022-09-27T03:52:53;1.60;;;1.10;;
20241;SDS011;10279;46.388;8.116;2022-09-27T03:55:20;0.93;;;0.77;;
20241;SDS011;10279;46.388;8.116;2022-09-27T03:57:48;0.83;;;0.83;;
20241;SDS011;10279;46.388;8.116;2022-09-27T04:00:15;1.10;;;1.00;;
20241;SDS011;10279;46.388;8.116;2022-09-27T04:02:43;1.83;;;0.90;;
20241;SDS011;10279;46.388;8.116;2022-09-27T04:05:10;1.20;;;1.03;;
20241;SDS011;10279;46.388;8.116;2022-09-27T04:07:38;1.03;;;0.93;;
20241;SDS011;10279;46.388;8.116;2022-09-27T04:10:05;0.80;;;0.80;;
20241;SDS011;10279;46.388;8.116;2022-09-27T04:12:33;1.30;;;1.10;;
20241;SDS011;10279;46.388;8.116;2022-09-27T04:15:00;1.00;;;0.90;;
20241;SDS011;10279;46.388;8.116;2022-09-27T04:17:27;1.43;;;0.90;;
20241;SDS011;10279;46.388;8.116;2022-09-27T04:19:55;0.67;;;0.67;;
20241;SDS011;10279;46.388;8.116;2022-09-27T04:22:22;1.50;;;1.07;;
20241;SDS011;10279;46.388;8.116;2022-09-27T04:24:50;1.67;;;0.90;;
20241;SDS011;10279;46.388;8.116;2022-09-27T04:27:17;0.90;;;0.90;;
20241;SDS011;10279;46.388;8.116;2022-09-27T04:29:44;1.13;;;1.03;;
20241;SDS011;10279;46.388;8.116;2022-09-27T04:32:12;1.30;;;1.20;;
20241;SDS011;10279;46.388;8.116;2022-09-27T04:34:40;1.00;;;0.90;;
20241;SDS011;10279;46.388;8.116;2022-09-27T04:37:26;1.10;;;0.90;;
20241;SDS011;10279;46.388;8.116;2022-09-27T04:39:53;1.27;;;0.97;;
20241;SDS011;10279;46.388;8.116;2022-09-27T04:42:21;1.03;;;0.90;;
20241;SDS011;10279;46.388;8.116;2022-09-27T04:44:48;0.70;;;0.60;;
20241;SDS011;10279;46.388;8.116;2022-09-27T04:47:15;1.70;;;0.90;;
20241;SDS011;10279;46.388;8.116;2022-09-27T04:49:44;1.00;;;1.00;;
20241;SDS011;10279;46.388;8.116;2022-09-27T04:52:12;1.60;;;1.10;;
20241;SDS011;10279;46.388;8.116;2022-09-27T04:54:40;2.00;;;0.93;;
20241;SDS011;10279;46.388;8.116;2022-09-27T04:57:08;1.43;;;0.83;;
20241;SDS011;10279;46.388;8.116;2022-09-27T04:59:35;0.87;;;0.83;;
20241;SDS011;10279;46.388;8.116;2022-09-27T05:02:02;1.00;;;0.97;;
20241;SDS011;10279;46.388;8.116;2022-09-27T05:04:31;1.63;;;0.73;;
20241;SDS011;10279;46.388;8.116;2022-09-27T05:06:58;0.50;;;0.50;;
20241;SDS011;10279;46.388;8.116;2022-09-27T05:09:25;1.00;;;0.90;;
20241;SDS011;10279;46.388;8.116;2022-09-27T05:11:53;0.70;;;0.60;;
20241;SDS011;10279;46.388;8.116;2022-09-27T05:14:21;0.70;;;0.70;;
20241;SDS011;10279;46.388;8.116;2022-09-27T05:16:48;0.90;;;0.90;;
20241;SDS011;10279;46.388;8.116;2022-09-27T05:19:16;0.83;;;0.80;;
20241;SDS011;10279;46.388;8.116;2022-09-27T05:21:43;0.73;;;0.73;;
20241;SDS011;10279;46.388;8.116;2022-09-27T05:24:11;0.87;;;0.70;;
20241;SDS011;10279;46.388;8.116;2022-09-27T05:26:38;1.00;;;0.87;;
20241;SDS011;10279;46.388;8.116;2022-09-27T05:29:07;0.83;;;0.80;;
20241;SDS011;10279;46.388;8.116;2022-09-27T05:31:34;1.20;;;0.90;;
20241;SDS011;10279;46.388;8.116;2022-09-27T05:34:02;0.83;;;0.70;;
20241;SDS011;10279;46.388;8.116;2022-09-27T05:36:29;0.60;;;0.60;;
20241;SDS011;10279;46.388;8.116;2022-09-27T05:38:57;0.97;;;0.87;;
20241;SDS011;10279;46.388;8.116;2022-09-27T05:41:25;1.80;;;0.60;;
20241;SDS011;10279;46.388;8.116;2022-09-27T05:43:52;1.03;;;0.73;;
20241;SDS011;10279;46.388;8.116;2022-09-27T05:46:20;0.93;;;0.83;;
20241;SDS011;10279;46.388;8.116;2022-09-27T05:48:48;0.60;;;0.60;;
20241;SDS011;10279;46.388;8.116;2022-09-27T05:51:15;0.60;;;0.53;;
20241;SDS011;10279;46.388;8.116;2022-09-27T05:53:44;0.60;;;0.60;;
20241;SDS011;10279;46.388;8.116;2022-09-27T05:56:11;1.13;;;0.57;;
20241;SDS011;10279;46.388;8.116;2022-09-27T05:58:39;0.70;;;0.60;;
20241;SDS011;10279;46.388;8.116;2022-09-27T06:01:06;0.83;;;0.70;;
20241;SDS011;10279;46.388;8.116;2022-09-27T06:03:34;0.53;;;0.53;;
20241;SDS011;10279;46.388;8.116;2022-09-27T06:06:02;1.60;;;0.70;;
20241;SDS011;10279;46.388;8.116;2022-09-27T06:08:32;0.60;;;0.60;;
20241;SDS011;10279;46.388;8.116;2022-09-27T06:11:04;0.50;;;0.50;;
20241;SDS011;10279;46.388;8.116;2022-09-27T06:13:31;0.50;;;0.50;;
20241;SDS011;10279;46.388;8.116;2022-09-27T06:15:59;0.73;;;0.70;;
20241;SDS011;10279;46.388;8.116;2022-09-27T06:18:26;0.70;;;0.60;;
20241;SDS011;10279;46.388;8.116;2022-09-27T06:20:54;0.83;;;0.80;;
20241;SDS011;10279;46.388;8.116;2022-09-27T06:23:22;1.43;;;0.57;;
20241;SDS011;10279;46.388;8.116;2022-09-27T06:25:49;0.57;;;0.57;;
20241;SDS011;10279;46.388;8.116;2022-09-27T06:28:17;0.60;;;0.40;;
20241;SDS011;10279;46.388;8.116;2022-09-27T06:30:45;1.07;;;0.50;;
20241;SDS011;10279;46.388;8.116;2022-09-27T06:33:17;0.40;;;0.40;;
20241;SDS011;10279;46.388;8.116;2022-09-27T06:35:45;0.50;;;0.50;;
20241;SDS011;10279;46.388;8.116;2022-09-27T06:38:15;1.53;;;0.33;;
20241;SDS011;10279;46.388;8.116;2022-09-27T06:40:43;0.77;;;0.60;;
20241;SDS011;10279;46.388;8.116;2022-09-27T06:43:14;2.03;;;0.70;;
20241;SDS011;10279;46.388;8.116;2022-09-27T06:45:42;0.60;;;0.60;;
20241;SDS011;10279;46.388;8.116;2022-09-27T06:48:10;0.70;;;0.70;;
20241;SDS011;10279;46.388;8.116;2022-09-27T06:50:39;0.50;;;0.50;;
20241;SDS011;10279;46.388;8.116;2022-09-27T06:53:07;0.97;;;0.50;;
20241;SDS011;10279;46.388;8.116;2022-09-27T06:55:36;0.33;;;0.30;;
20241;SDS011;10279;46.388;8.116;2022-09-27T06:58:03;0.50;;;0.37;;
20241;SDS011;10279;46.388;8.116;2022-09-27T07:00:50;6.50;;;0.97;;
20241;SDS011;10279;46.388;8.116;2022-09-27T07:03:19;0.50;;;0.50;;
20241;SDS011;10279;46.388;8.116;2022-09-27T07:05:55;0.20;;;0.20;;
20241;SDS011;10279;46.388;8.116;2022-09-27T07:08:22;0.60;;;0.30;;
20241;SDS011;10279;46.388;8.116;2022-09-27T07:10:52;0.23;;;0.23;;
20241;SDS011;10279;46.388;8.116;2022-09-27T07:13:20;0.30;;;0.30;;
20241;SDS011;10279;46.388;8.116;2022-09-27T07:15:48;0.20;;;0.20;;
20241;SDS011;10279;46.388;8.116;2022-09-27T07:18:15;0.30;;;0.30;;
20241;SDS011;10279;46.388;8.116;2022-09-27T07:20:43;0.30;;;0.30;;
20241;SDS011;10279;46.388;8.116;2022-09-27T07:23:13;0.47;;;0.40;;
20241;SDS011;10279;46.388;8.116;2022-09-27T07:25:41;0.73;;;0.40;;
20241;SDS011;10279;46.388;8.116;2022-09-27T07:28:13;0.30;;;0.30;;
20241;SDS011;10279;46.388;8.116;2022-09-27T07:30:47;0.23;;;0.23;;
20241;SDS011;10279;46.388;8.116;2022-09-27T07:33:14;0.20;;;0.20;;
20241;SDS011;10279;46.388;8.116;2022-09-27T07:35:41;0.30;;;0.30;;
20241;SDS011;10279;46.388;8.116;2022-09-27T07:38:09;0.30;;;0.27;;
20241;SDS011;10279;46.388;8.116;2022-09-27T07:40:42;0.57;;;0.40;;
20241;SDS011;10279;46.388;8.116;2022-09-27T07:43:09;0.33;;;0.33;;
20241;SDS011;10279;46.388;8.116;2022-09-27T07:45:37;0.30;;;0.30;;
20241;SDS011;10279;46.388;8.116;2022-09-27T07:48:05;0.40;;;0.30;;
20241;SDS011;10279;46.388;8.116;2022-09-27T07:50:33;0.23;;;0.23;;
20241;SDS011;10279;46.388;8.116;2022-09-27T07:53:01;0.20;;;0.20;;
20241;SDS011;10279;46.388;8.116;2022-09-27T07:55:30;0.97;;;0.30;;
20241;SDS011;10279;46.388;8.116;2022-09-27T07:58:04;0.20;;;0.10;;
20241;SDS011;10279;46.388;8.116;2022-09-27T08:00:32;1.17;;;0.20;;
20241;SDS011;10279;46.388;8.116;2022-09-27T08:03:03;2.07;;;0.20;;
20241;SDS011;10279;46.388;8.116;2022-09-27T08:05:32;0.20;;;0.20;;
20241;SDS011;10279;46.388;8.116;2022-09-27T08:08:00;0.10;;;0.10;;
20241;SDS011;10279;46.388;8.116;2022-09-27T08:10:28;0.20;;;0.20;;
20241;SDS011;10279;46.388;8.116;2022-09-27T08:12:57;0.70;;;0.27;;
20241;SDS011;10279;46.388;8.116;2022-09-27T08:15:25;0.53;;;0.30;;
20241;SDS011;10279;46.388;8.116;2022-09-27T08:17:53;0.40;;;0.27;;
20241;SDS011;10279;46.388;8.116;2022-09-27T08:20:21;0.20;;;0.20;;
20241;SDS011;10279;46.388;8.116;2022-09-27T08:22:48;0.30;;;0.27;;
20241;SDS011;10279;46.388;8.116;2022-09-27T08:25:16;0.10;;;0.10;;
20241;SDS011;10279;46.388;8.116;2022-09-27T08:27:43;0.83;;;0.20;;
20241;SDS011;10279;46.388;8.116;2022-09-27T08:30:10;0.20;;;0.10;;
20241;SDS011;10279;46.388;8.116;2022-09-27T08:32:38;0.30;;;0.20;;
20241;SDS011;10279;46.388;8.116;2022-09-27T08:35:05;0.10;;;0.10;;
20241;SDS011;10279;46.388;8.116;2022-09-27T08:37:33;0.53;;;0.20;;
20241;SDS011;10279;46.388;8.116;2022-09-27T08:40:01;0.10;;;0.10;;
20241;SDS011;10279;46.388;8.116;2022-09-27T08:42:37;0.10;;;0.10;;
20241;SDS011;10279;46.388;8.116;2022-09-27T08:45:21;0.20;;;0.20;;
20241;SDS011;10279;46.388;8.116;2022-09-27T08:48:00;0.30;;;0.10;;
20241;SDS011;10279;46.388;8.116;2022-09-27T08:50:35;0.20;;;0.10;;
20241;SDS011;10279;46.388;8.116;2022-09-27T08:55:51;0.10;;;0.10;;
20241;SDS011;10279;46.388;8.116;2022-09-27T08:58:22;0.40;;;0.10;;
20241;SDS011;10279;46.388;8.116;2022-09-27T09:00:52;0.20;;;0.20;;
20241;SDS011;10279;46.388;8.116;2022-09-27T09:03:21;0.30;;;0.10;;
20241;SDS011;10279;46.388;8.116;2022-09-27T09:05:53;0.10;;;0.10;;
20241;SDS011;10279;46.388;8.116;2022-09-27T09:08:27;0.17;;;0.13;;
20241;SDS011;10279;46.388;8.116;2022-09-27T09:17:33;0.10;;;0.10;;
20241;SDS011;10279;46.388;8.116;2022-09-27T09:25:04;2.43;;;0.20;;
20241;SDS011;10279;46.388;8.116;2022-09-27T09:35:12;0.70;;;0.20;;
20241;SDS011;10279;46.388;8.116;2022-09-27T09:40:25;0.10;;;0.10;;
20241;SDS011;10279;46.388;8.116;2022-09-27T09:42:56;0.53;;;0.13;;
20241;SDS011;10279;46.388;8.116;2022-09-27T09:45:32;0.10;;;0.10;;
20241;SDS011;10279;46.388;8.116;2022-09-27T09:50:46;0.10;;;0.10;;
20241;SDS011;10279;46.388;8.116;2022-09-27T09:53:19;0.10;;;0.10;;
20241;SDS011;10279;46.388;8.116;2022-09-27T09:56:01;0.10;;;0.10;;
20241;SDS011;10279;46.388;8.116;2022-09-27T10:00:57;0.10;;;0.10;;
20241;SDS011;10279;46.388;8.116;2022-09-27T10:03:26;0.10;;;0.10;;
20241;SDS011;10279;46.388;8.116;2022-09-27T10:05:54;0.27;;;0.10;;
20241;SDS011;10279;46.388;8.116;2022-09-27T10:08:21;0.10;;;0.10;;
20241;SDS011;10279;46.388;8.116;2022-09-27T10:10:49;0.10;;;0.10;;
20241;SDS011;10279;46.388;8.116;2022-09-27T10:13:18;0.10;;;0.10;;
20241;SDS011;10279;46.388;8.116;2022-09-27T10:15:52;0.23;;;0.20;;
20241;SDS011;10279;46.388;8.116;2022-09-27T10:18:21;0.00;;;0.00;;
20241;SDS011;10279;46.388;8.116;2022-09-27T10:20:52;0.10;;;0.10;;
20241;SDS011;10279;46.388;8.116;2022-09-27T10:23:22;0.50;;;0.07;;
20241;SDS011;10279;46.388;8.116;2022-09-27T10:30:59;0.97;;;0.10;;
20241;SDS011;10279;46.388;8.116;2022-09-27T10:33:28;0.13;;;0.13;;
20241;SDS011;10279;46.388;8.116;2022-09-27T10:35:57;0.10;;;0.10;;
20241;SDS011;10279;46.388;8.116;2022-09-27T10:38:29;0.10;;;0.10;;
20241;SDS011;10279;46.388;8.116;2022-09-27T10:40:58;0.10;;;0.10;;
20241;SDS011;10279;46.388;8.116;2022-09-27T10:43:42;0.10;;;0.10;;
20241;SDS011;10279;46.388;8.116;2022-09-27T10:46:28;0.10;;;0.10;;
20241;SDS011;10279;46.388;8.116;2022-09-27T10:51:42;0.27;;;0.10;;
20241;SDS011;10279;46.388;8.116;2022-09-27T10:54:19;0.20;;;0.20;;
20241;SDS011;10279;46.388;8.116;2022-09-27T10:56:58;0.10;;;0.10;;
20241;SDS011;10279;46.388;8.116;2022-09-27T10:59:26;0.10;;;0.10;;
20241;SDS011;10279;46.388;8.116;2022-09-27T11:01:56;0.10;;;0.10;;
20241;SDS011;10279;46.388;8.116;2022-09-27T11:04:31;0.27;;;0.10;;
20241;SDS011;10279;46.388;8.116;2022-09-27T11:07:07;0.40;;;0.20;;
20241;SDS011;10279;46.388;8.116;2022-09-27T11:09:51;0.10;;;0.10;;
20241;SDS011;10279;46.388;8.116;2022-09-27T11:12:20;0.20;;;0.20;;
20241;SDS011;10279;46.388;8.116;2022-09-27T11:14:52;0.10;;;0.10;;
20241;SDS011;10279;46.388;8.116;2022-09-27T11:17:25;0.20;;;0.10;;
20241;SDS011;10279;46.388;8.116;2022-09-27T11:25:01;0.10;;;0.10;;
20241;SDS011;10279;46.388;8.116;2022-09-27T11:43:22;0.10;;;0.10;;
20241;SDS011;10279;46.388;8.116;2022-09-27T11:51:24;0.77;;;0.10;;
20241;SDS011;10279;46.388;8.116;2022-09-27T11:56:48;1.03;;;0.30;;
20241;SDS011;10279;46.388;8.116;2022-09-27T12:01:53;0.40;;;0.10;;
20241;SDS011;10279;46.388;8.116;2022-09-27T12:09:38;0.10;;;0.10;;
20241;SDS011;10279;46.388;8.116;2022-09-27T12:14:52;0.10;;;0.10;;
20241;SDS011;10279;46.388;8.116;2022-09-27T12:17:25;0.13;;;0.13;;
20241;SDS011;10279;46.388;8.116;2022-09-27T12:19:54;0.57;;;0.20;;
20241;SDS011;10279;46.388;8.116;2022-09-27T12:22:33;0.10;;;0.10;;
20241;SDS011;10279;46.388;8.116;2022-09-27T12:25:22;0.47;;;0.13;;
20241;SDS011;10279;46.388;8.116;2022-09-27T12:27:54;0.10;;;0.10;;
20241;SDS011;10279;46.388;8.116;2022-09-27T12:30:24;2.13;;;0.10;;
20241;SDS011;10279;46.388;8.116;2022-09-27T12:32:55;2.37;;;1.27;;
20241;SDS011;10279;46.388;8.116;2022-09-27T12:35:26;0.20;;;0.20;;
20241;SDS011;10279;46.388;8.116;2022-09-27T12:40:43;0.10;;;0.10;;
20241;SDS011;10279;46.388;8.116;2022-09-27T12:43:21;0.10;;;0.10;;
20241;SDS011;10279;46.388;8.116;2022-09-27T12:49:16;0.73;;;0.10;;
20241;SDS011;10279;46.388;8.116;2022-09-27T12:51:35;0.10;;;0.10;;
20241;SDS011;10279;46.388;8.116;2022-09-27T12:59:32;0.10;;;0.10;;
20241;SDS011;10279;46.388;8.116;2022-09-27T13:02:11;0.67;;;0.10;;
20241;SDS011;10279;46.388;8.116;2022-09-27T13:12:48;0.10;;;0.10;;
20241;SDS011;10279;46.388;8.116;2022-09-27T13:15:28;0.33;;;0.20;;
20241;SDS011;10279;46.388;8.116;2022-09-27T13:17:58;0.10;;;0.10;;
20241;SDS011;10279;46.388;8.116;2022-09-27T13:22:58;0.17;;;0.10;;
20241;SDS011;10279;46.388;8.116;2022-09-27T13:30:58;0.83;;;0.20;;
20241;SDS011;10279;46.388;8.116;2022-09-27T13:33:32;0.20;;;0.20;;
20241;SDS011;10279;46.388;8.116;2022-09-27T13:46:48;0.10;;;0.10;;
20241;SDS011;10279;46.388;8.116;2022-09-27T13:51:49;0.10;;;0.10;;
20241;SDS011;10279;46.388;8.116;2022-09-27T13:57:04;0.20;;;0.20;;
20241;SDS011;10279;46.388;8.116;2022-09-27T13:59:51;0.20;;;0.20;;
20241;SDS011;10279;46.388;8.116;2022-09-27T14:02:30;0.10;;;0.10;;
20241;SDS011;10279;46.388;8.116;2022-09-27T14:05:02;0.87;;;0.13;;
20241;SDS011;10279;46.388;8.116;2022-09-27T14:07:39;0.20;;;0.20;;
20241;SDS011;10279;46.388;8.116;2022-09-27T14:10:11;0.17;;;0.17;;
20241;SDS011;10279;46.388;8.116;2022-09-27T14:12:40;0.17;;;0.13;;
20241;SDS011;10279;46.388;8.116;2022-09-27T14:15:09;0.10;;;0.10;;
20241;SDS011;10279;46.388;8.116;2022-09-27T14:17:42;0.20;;;0.20;;
20241;SDS011;10279;46.388;8.116;2022-09-27T14:22:57;1.33;;;0.37;;
20241;SDS011;10279;46.388;8.116;2022-09-27T14:25:24;0.23;;;0.20;;
20241;SDS011;10279;46.388;8.116;2022-09-27T14:27:52;0.13;;;0.13;;
20241;SDS011;10279;46.388;8.116;2022-09-27T14:30:20;1.33;;;0.17;;
20241;SDS011;10279;46.388;8.116;2022-09-27T14:32:49;0.30;;;0.20;;
20241;SDS011;10279;46.388;8.116;2022-09-27T14:35:17;1.00;;;0.20;;
20241;SDS011;10279;46.388;8.116;2022-09-27T14:38:05;0.20;;;0.20;;
20241;SDS011;10279;46.388;8.116;2022-09-27T14:41:05;0.20;;;0.20;;
20241;SDS011;10279;46.388;8.116;2022-09-27T14:43:33;0.90;;;0.20;;
20241;SDS011;10279;46.388;8.116;2022-09-27T14:46:02;0.30;;;0.10;;
20241;SDS011;10279;46.388;8.116;2022-09-27T14:48:35;0.40;;;0.20;;
20241;SDS011;10279;46.388;8.116;2022-09-27T14:51:03;0.47;;;0.30;;
20241;SDS011;10279;46.388;8.116;2022-09-27T14:53:48;0.40;;;0.27;;
20241;SDS011;10279;46.388;8.116;2022-09-27T14:56:24;0.83;;;0.17;;
20241;SDS011;10279;46.388;8.116;2022-09-27T14:58:54;1.10;;;0.23;;
20241;SDS011;10279;46.388;8.116;2022-09-27T15:01:28;1.40;;;0.20;;
20241;SDS011;10279;46.388;8.116;2022-09-27T15:04:01;0.77;;;0.20;;
20241;SDS011;10279;46.388;8.116;2022-09-27T15:06:29;0.60;;;0.20;;
20241;SDS011;10279;46.388;8.116;2022-09-27T15:08:57;1.00;;;0.20;;
20241;SDS011;10279;46.388;8.116;2022-09-27T15:11:25;0.47;;;0.20;;
20241;SDS011;10279;46.388;8.116;2022-09-27T15:13:55;0.90;;;0.20;;
20241;SDS011;10279;46.388;8.116;2022-09-27T15:16:23;0.70;;;0.20;;
20241;SDS011;10279;46.388;8.116;2022-09-27T15:18:59;0.67;;;0.20;;
20241;SDS011;10279;46.388;8.116;2022-09-27T15:21:32;0.87;;;0.20;;
20241;SDS011;10279;46.388;8.116;2022-09-27T15:24:00;0.47;;;0.10;;
20241;SDS011;10279;46.388;8.116;2022-09-27T15:26:41;0.37;;;0.30;;
20241;SDS011;10279;46.388;8.116;2022-09-27T15:29:28;1.40;;;0.40;;
20241;SDS011;10279;46.388;8.116;2022-09-27T15:31:59;0.20;;;0.20;;
20241;SDS011;10279;46.388;8.116;2022-09-27T15:34:26;0.37;;;0.30;;
20241;SDS011;10279;46.388;8.116;2022-09-27T15:36:58;1.43;;;0.97;;
20241;SDS011;10279;46.388;8.116;2022-09-27T15:39:35;0.67;;;0.30;;
20241;SDS011;10279;46.388;8.116;2022-09-27T15:42:07;0.10;;;0.10;;
20241;SDS011;10279;46.388;8.116;2022-09-27T15:47:17;0.67;;;0.30;;
20241;SDS011;10279;46.388;8.116;2022-09-27T15:49:53;2.87;;;0.30;;
20241;SDS011;10279;46.388;8.116;2022-09-27T15:55:24;0.40;;;0.30;;
20241;SDS011;10279;46.388;8.116;2022-09-27T15:57:55;0.30;;;0.30;;
20241;SDS011;10279;46.388;8.116;2022-09-27T16:00:27;0.60;;;0.30;;
20241;SDS011;10279;46.388;8.116;2022-09-27T16:02:55;0.97;;;0.10;;
20241;SDS011;10279;46.388;8.116;2022-09-27T16:05:23;0.20;;;0.20;;
20241;SDS011;10279;46.388;8.116;2022-09-27T16:07:52;1.07;;;0.10;;
20241;SDS011;10279;46.388;8.116;2022-09-27T16:10:25;0.20;;;0.20;;
20241;SDS011;10279;46.388;8.116;2022-09-27T16:12:53;0.20;;;0.20;;
20241;SDS011;10279;46.388;8.116;2022-09-27T16:15:20;0.57;;;0.20;;
20241;SDS011;10279;46.388;8.116;2022-09-27T16:17:47;0.60;;;0.20;;
20241;SDS011;10279;46.388;8.116;2022-09-27T16:22:42;0.30;;;0.30;;
20241;SDS011;10279;46.388;8.116;2022-09-27T16:25:10;0.30;;;0.17;;
20241;SDS011;10279;46.388;8.116;2022-09-27T16:27:37;1.13;;;1.03;;
20241;SDS011;10279;46.388;8.116;2022-09-27T16:30:05;0.37;;;0.30;;
20241;SDS011;10279;46.388;8.116;2022-09-27T16:32:33;0.73;;;0.20;;
20241;SDS011;10279;46.388;8.116;2022-09-27T16:35:06;0.20;;;0.20;;
20241;SDS011;10279;46.388;8.116;2022-09-27T16:37:34;0.40;;;0.27;;
20241;SDS011;10279;46.388;8.116;2022-09-27T16:40:02;0.30;;;0.20;;
20241;SDS011;10279;46.388;8.116;2022-09-27T16:42:30;0.20;;;0.20;;
20241;SDS011;10279;46.388;8.116;2022-09-27T16:44:57;0.63;;;0.30;;
20241;SDS011;10279;46.388;8.116;2022-09-27T16:47:32;0.10;;;0.10;;
20241;SDS011;10279;46.388;8.116;2022-09-27T16:50:01;1.73;;;0.30;;
20241;SDS011;10279;46.388;8.116;2022-09-27T16:52:46;0.20;;;0.20;;
20241;SDS011;10279;46.388;8.116;2022-09-27T16:55:15;2.10;;;0.20;;
20241;SDS011;10279;46.388;8.116;2022-09-27T16:57:46;0.40;;;0.20;;
20241;SDS011;10279;46.388;8.116;2022-09-27T17:00:14;2.03;;;0.30;;
20241;SDS011;10279;46.388;8.116;2022-09-27T17:02:42;0.77;;;0.20;;
20241;SDS011;10279;46.388;8.116;2022-09-27T17:05:12;0.20;;;0.20;;
20241;SDS011;10279;46.388;8.116;2022-09-27T17:07:40;0.20;;;0.20;;
20241;SDS011;10279;46.388;8.116;2022-09-27T17:10:08;0.30;;;0.20;;
20241;SDS011;10279;46.388;8.116;2022-09-27T17:12:35;0.30;;;0.30;;
20241;SDS011;10279;46.388;8.116;2022-09-27T17:15:02;0.47;;;0.30;;
20241;SDS011;10279;46.388;8.116;2022-09-27T17:17:30;0.77;;;0.20;;
20241;SDS011;10279;46.388;8.116;2022-09-27T17:19:57;0.20;;;0.20;;
20241;SDS011;10279;46.388;8.116;2022-09-27T17:22:25;0.83;;;0.20;;
20241;SDS011;10279;46.388;8.116;2022-09-27T17:24:52;0.30;;;0.13;;
20241;SDS011;10279;46.388;8.116;2022-09-27T17:27:19;0.83;;;0.30;;
20241;SDS011;10279;46.388;8.116;2022-09-27T17:29:51;1.13;;;0.10;;
20241;SDS011;10279;46.388;8.116;2022-09-27T17:32:18;0.33;;;0.30;;
20241;SDS011;10279;46.388;8.116;2022-09-27T17:34:51;0.77;;;0.30;;
20241;SDS011;10279;46.388;8.116;2022-09-27T17:37:19;0.40;;;0.30;;
20241;SDS011;10279;46.388;8.116;2022-09-27T17:39:46;0.20;;;0.20;;
20241;SDS011;10279;46.388;8.116;2022-09-27T17:42:14;0.40;;;0.37;;
20241;SDS011;10279;46.388;8.116;2022-09-27T17:44:44;0.70;;;0.20;;
20241;SDS011;10279;46.388;8.116;2022-09-27T17:47:11;0.30;;;0.30;;
20241;SDS011;10279;46.388;8.116;2022-09-27T17:49:58;0.20;;;0.10;;
20241;SDS011;10279;46.388;8.116;2022-09-27T17:52:44;0.27;;;0.20;;
20241;SDS011;10279;46.388;8.116;2022-09-27T17:55:11;0.20;;;0.20;;
20241;SDS011;10279;46.388;8.116;2022-09-27T17:57:40;0.13;;;0.13;;
20241;SDS011;10279;46.388;8.116;2022-09-27T18:00:07;0.53;;;0.30;;
20241;SDS011;10279;46.388;8.116;2022-09-27T18:02:35;0.20;;;0.20;;
20241;SDS011;10279;46.388;8.116;2022-09-27T18:05:02;0.30;;;0.20;;
20241;SDS011;10279;46.388;8.116;2022-09-27T18:07:30;1.43;;;0.20;;
20241;SDS011;10279;46.388;8.116;2022-09-27T18:09:58;0.17;;;0.17;;
20241;SDS011;10279;46.388;8.116;2022-09-27T18:12:29;0.20;;;0.20;;
20241;SDS011;10279;46.388;8.116;2022-09-27T18:15:00;0.30;;;0.30;;
20241;SDS011;10279;46.388;8.116;2022-09-27T18:17:28;1.30;;;0.37;;
20241;SDS011;10279;46.388;8.116;2022-09-27T18:19:55;0.47;;;0.37;;
20241;SDS011;10279;46.388;8.116;2022-09-27T18:22:27;2.57;;;0.33;;
20241;SDS011;10279;46.388;8.116;2022-09-27T18:24:56;0.47;;;0.10;;